sensor_id;sensor_type;location;lat;lon;timestamp;pressure;altitude;pressure_sealevel;temperature;humidity
4576;BME280;2300;51.874;8.430;2024-01-27T00:00:12;102431.81;;;3.09;92.88
4576;BME280;2300;51.874;8.430;2024-01-27T00:02:39;102437.53;;;3.06;92.60
4576;BME280;2300;51.874;8.430;2024-01-27T00:05:06;102447.81;;;3.02;92.24
4576;BME280;2300;51.874;8.430;2024-01-27T00:07:34;102460.38;;;3.13;92.09
4576;BME280;2300;51.874;8.430;2024-01-27T00:10:01;102447.81;;;3.12;91.67
4576;BME280;2300;51.874;8.430;2024-01-27T00:12:28;102447.81;;;3.02;92.23
4576;BME280;2300;51.874;8.430;2024-01-27T00:14:54;102451.94;;;3.06;92.84
4576;BME280;2300;51.874;8.430;2024-01-27T00:17:21;102459.94;;;3.08;92.42
4576;BME280;2300;51.874;8.430;2024-01-27T00:19:50;102458.94;;;2.99;92.29
4576;BME280;2300;51.874;8.430;2024-01-27T00:22:16;102458.09;;;2.99;92.60
4576;BME280;2300;51.874;8.430;2024-01-27T00:24:44;102466.38;;;3.07;92.25
4576;BME280;2300;51.874;8.430;2024-01-27T00:27:11;102464.50;;;2.98;92.54
4576;BME280;2300;51.874;8.430;2024-01-27T00:29:37;102460.38;;;2.94;92.56
4576;BME280;2300;51.874;8.430;2024-01-27T00:32:04;102465.25;;;3.00;92.85
4576;BME280;2300;51.874;8.430;2024-01-27T00:34:31;102471.53;;;3.00;92.94
4576;BME280;2300;51.874;8.430;2024-01-27T00:36:57;102476.09;;;2.90;93.44
4576;BME280;2300;51.874;8.430;2024-01-27T00:39:25;102460.63;;;2.91;92.81
4576;BME280;2300;51.874;8.430;2024-01-27T00:41:53;102480.34;;;2.83;92.51
4576;BME280;2300;51.874;8.430;2024-01-27T00:44:20;102482.63;;;2.88;93.20
4576;BME280;2300;51.874;8.430;2024-01-27T00:46:47;102491.34;;;2.91;93.22
4576;BME280;2300;51.874;8.430;2024-01-27T00:49:13;102486.78;;;2.92;92.89
4576;BME280;2300;51.874;8.430;2024-01-27T00:51:40;102488.06;;;2.88;92.94
4576;BME280;2300;51.874;8.430;2024-01-27T00:54:06;102490.03;;;2.86;93.81
4576;BME280;2300;51.874;8.430;2024-01-27T00:56:33;102498.19;;;2.86;93.54
4576;BME280;2300;51.874;8.430;2024-01-27T00:59:01;102498.59;;;2.81;93.60
4576;BME280;2300;51.874;8.430;2024-01-27T01:01:27;102496.06;;;2.80;92.86
4576;BME280;2300;51.874;8.430;2024-01-27T01:03:54;102499.66;;;2.90;93.21
4576;BME280;2300;51.874;8.430;2024-01-27T01:06:21;102492.75;;;2.86;92.55
4576;BME280;2300;51.874;8.430;2024-01-27T01:08:47;102497.75;;;2.81;92.40
4576;BME280;2300;51.874;8.430;2024-01-27T01:11:14;102498.47;;;2.83;93.13
4576;BME280;2300;51.874;8.430;2024-01-27T01:13:41;102507.16;;;2.76;92.99
4576;BME280;2300;51.874;8.430;2024-01-27T01:16:08;102493.28;;;2.70;92.97
4576;BME280;2300;51.874;8.430;2024-01-27T01:18:35;102510.63;;;2.78;93.21
4576;BME280;2300;51.874;8.430;2024-01-27T01:21:01;102513.16;;;2.80;93.39
4576;BME280;2300;51.874;8.430;2024-01-27T01:23:28;102520.94;;;2.85;93.12
4576;BME280;2300;51.874;8.430;2024-01-27T01:25:54;102507.75;;;2.80;93.24
4576;BME280;2300;51.874;8.430;2024-01-27T01:28:22;102508.03;;;2.77;92.73
4576;BME280;2300;51.874;8.430;2024-01-27T01:30:48;102507.16;;;2.76;93.58
4576;BME280;2300;51.874;8.430;2024-01-27T01:33:17;102503.06;;;2.82;92.89
4576;BME280;2300;51.874;8.430;2024-01-27T01:35:43;102509.19;;;2.74;93.64
4576;BME280;2300;51.874;8.430;2024-01-27T01:38:10;102511.91;;;2.74;93.22
4576;BME280;2300;51.874;8.430;2024-01-27T01:40:37;102510.88;;;2.75;93.57
4576;BME280;2300;51.874;8.430;2024-01-27T01:43:09;102498.78;;;2.80;93.50
4576;BME280;2300;51.874;8.430;2024-01-27T01:45:36;102512.88;;;2.73;93.04
4576;BME280;2300;51.874;8.430;2024-01-27T01:48:04;102499.91;;;2.77;93.63
4576;BME280;2300;51.874;8.430;2024-01-27T01:50:32;102502.16;;;2.72;93.04
4576;BME280;2300;51.874;8.430;2024-01-27T01:52:59;102500.16;;;2.64;93.13
4576;BME280;2300;51.874;8.430;2024-01-27T01:55:25;102505.75;;;2.72;93.36
4576;BME280;2300;51.874;8.430;2024-01-27T01:57:52;102510.72;;;2.67;92.70
4576;BME280;2300;51.874;8.430;2024-01-27T02:00:18;102515.16;;;2.68;92.72
4576;BME280;2300;51.874;8.430;2024-01-27T02:02:44;102508.88;;;2.68;93.31
4576;BME280;2300;51.874;8.430;2024-01-27T02:05:11;102502.88;;;2.64;93.42
4576;BME280;2300;51.874;8.430;2024-01-27T02:07:39;102505.59;;;2.64;93.15
4576;BME280;2300;51.874;8.430;2024-01-27T02:10:12;102496.38;;;2.56;94.06
4576;BME280;2300;51.874;8.430;2024-01-27T02:12:39;102503.56;;;2.66;93.64
4576;BME280;2300;51.874;8.430;2024-01-27T02:15:09;102495.72;;;2.63;93.70
4576;BME280;2300;51.874;8.430;2024-01-27T02:17:36;102502.88;;;2.64;93.74
4576;BME280;2300;51.874;8.430;2024-01-27T02:20:03;102507.00;;;2.59;93.37
4576;BME280;2300;51.874;8.430;2024-01-27T02:22:29;102505.84;;;2.61;94.16
4576;BME280;2300;51.874;8.430;2024-01-27T02:24:57;102502.88;;;2.64;93.51
4576;BME280;2300;51.874;8.430;2024-01-27T02:27:24;102503.13;;;2.61;93.88
4576;BME280;2300;51.874;8.430;2024-01-27T02:29:50;102499.13;;;2.65;93.40
4576;BME280;2300;51.874;8.430;2024-01-27T02:32:17;102498.16;;;2.66;93.71
4576;BME280;2300;51.874;8.430;2024-01-27T02:34:43;102501.59;;;2.68;93.04
4576;BME280;2300;51.874;8.430;2024-01-27T02:37:10;102511.28;;;2.71;93.76
4576;BME280;2300;51.874;8.430;2024-01-27T02:39:36;102512.59;;;2.76;92.75
4576;BME280;2300;51.874;8.430;2024-01-27T02:42:04;102512.59;;;2.76;93.08
4576;BME280;2300;51.874;8.430;2024-01-27T02:44:31;102507.72;;;2.70;92.82
4576;BME280;2300;51.874;8.430;2024-01-27T02:46:57;102514.41;;;2.66;92.50
4576;BME280;2300;51.874;8.430;2024-01-27T02:49:23;102514.59;;;2.74;92.76
4576;BME280;2300;51.874;8.430;2024-01-27T02:51:50;102517.13;;;2.66;92.29
4576;BME280;2300;51.874;8.430;2024-01-27T02:54:16;102514.72;;;2.63;92.60
4576;BME280;2300;51.874;8.430;2024-01-27T02:56:43;102510.53;;;2.59;92.67
4576;BME280;2300;51.874;8.430;2024-01-27T02:59:11;102509.78;;;2.48;93.03
4576;BME280;2300;51.874;8.430;2024-01-27T03:01:38;102519.94;;;2.55;93.20
4576;BME280;2300;51.874;8.430;2024-01-27T03:04:04;102513.38;;;2.48;93.46
4576;BME280;2300;51.874;8.430;2024-01-27T03:06:31;102523.50;;;2.56;93.83
4576;BME280;2300;51.874;8.430;2024-01-27T03:08:58;102514.84;;;2.62;93.00
4576;BME280;2300;51.874;8.430;2024-01-27T03:11:24;102523.38;;;2.57;93.32
4576;BME280;2300;51.874;8.430;2024-01-27T03:13:51;102523.63;;;2.54;93.07
4576;BME280;2300;51.874;8.430;2024-01-27T03:16:18;102534.25;;;2.57;93.18
4576;BME280;2300;51.874;8.430;2024-01-27T03:18:45;102536.50;;;2.52;92.63
4576;BME280;2300;51.874;8.430;2024-01-27T03:21:11;102543.28;;;2.37;92.57
4576;BME280;2300;51.874;8.430;2024-01-27T03:23:38;102544.19;;;2.47;93.26
4576;BME280;2300;51.874;8.430;2024-01-27T03:26:04;102540.16;;;2.42;92.81
4576;BME280;2300;51.874;8.430;2024-01-27T03:28:31;102543.63;;;2.44;92.82
4576;BME280;2300;51.874;8.430;2024-01-27T03:30:57;102545.63;;;2.51;92.64
4576;BME280;2300;51.874;8.430;2024-01-27T03:33:26;102546.13;;;2.35;92.46
4576;BME280;2300;51.874;8.430;2024-01-27T03:35:54;102545.25;;;2.35;92.78
4576;BME280;2300;51.874;8.430;2024-01-27T03:38:21;102546.97;;;2.36;93.16
4576;BME280;2300;51.874;8.430;2024-01-27T03:40:47;102527.53;;;2.31;92.90
4576;BME280;2300;51.874;8.430;2024-01-27T03:43:14;102530.44;;;2.39;92.57
4576;BME280;2300;51.874;8.430;2024-01-27T03:45:40;102539.50;;;2.28;92.76
4576;BME280;2300;51.874;8.430;2024-01-27T03:48:07;102538.38;;;2.31;93.10
4576;BME280;2300;51.874;8.430;2024-01-27T03:50:35;102541.91;;;2.22;92.07
4576;BME280;2300;51.874;8.430;2024-01-27T03:53:01;102541.19;;;2.20;92.15
4576;BME280;2300;51.874;8.430;2024-01-27T03:55:28;102540.47;;;2.18;92.30
4576;BME280;2300;51.874;8.430;2024-01-27T03:57:54;102551.16;;;2.19;92.91
4576;BME280;2300;51.874;8.430;2024-01-27T04:00:21;102553.69;;;2.11;93.01
4576;BME280;2300;51.874;8.430;2024-01-27T04:02:47;102553.53;;;2.13;92.22
4576;BME280;2300;51.874;8.430;2024-01-27T04:05:14;102544.13;;;2.07;91.83
4576;BME280;2300;51.874;8.430;2024-01-27T04:07:42;102558.78;;;2.05;92.09
4576;BME280;2300;51.874;8.430;2024-01-27T04:10:09;102563.00;;;1.98;91.78
4576;BME280;2300;51.874;8.430;2024-01-27T04:12:35;102565.78;;;1.86;91.42
4576;BME280;2300;51.874;8.430;2024-01-27T04:15:02;102563.84;;;1.77;92.21
4576;BME280;2300;51.874;8.430;2024-01-27T04:17:28;102572.44;;;1.82;92.36
4576;BME280;2300;51.874;8.430;2024-01-27T04:19:55;102576.16;;;1.81;93.44
4576;BME280;2300;51.874;8.430;2024-01-27T04:22:21;102567.88;;;1.83;93.16
4576;BME280;2300;51.874;8.430;2024-01-27T04:24:49;102572.72;;;1.79;92.90
4576;BME280;2300;51.874;8.430;2024-01-27T04:27:16;102571.31;;;1.64;93.07
4576;BME280;2300;51.874;8.430;2024-01-27T04:29:42;102574.88;;;1.65;93.01
4576;BME280;2300;51.874;8.430;2024-01-27T04:32:09;102581.47;;;1.72;93.76
4576;BME280;2300;51.874;8.430;2024-01-27T04:34:35;102577.91;;;1.71;93.55
4576;BME280;2300;51.874;8.430;2024-01-27T04:37:02;102574.72;;;1.66;93.61
4576;BME280;2300;51.874;8.430;2024-01-27T04:39:29;102573.19;;;1.53;93.20
4576;BME280;2300;51.874;8.430;2024-01-27T04:41:56;102577.78;;;1.30;93.41
4576;BME280;2300;51.874;8.430;2024-01-27T04:44:23;102586.66;;;1.32;93.68
4576;BME280;2300;51.874;8.430;2024-01-27T04:46:50;102582.63;;;1.26;93.67
4576;BME280;2300;51.874;8.430;2024-01-27T04:49:16;102577.69;;;1.20;93.59
4576;BME280;2300;51.874;8.430;2024-01-27T04:51:42;102582.03;;;1.12;93.49
4576;BME280;2300;51.874;8.430;2024-01-27T04:54:09;102571.69;;;1.05;93.21
4576;BME280;2300;51.874;8.430;2024-01-27T04:56:35;102575.78;;;0.89;93.98
4576;BME280;2300;51.874;8.430;2024-01-27T04:59:04;102585.25;;;0.83;94.12
4576;BME280;2300;51.874;8.430;2024-01-27T05:01:31;102581.94;;;0.80;94.19
4576;BME280;2300;51.874;8.430;2024-01-27T05:03:58;102586.09;;;0.84;94.27
4576;BME280;2300;51.874;8.430;2024-01-27T05:06:24;102588.97;;;0.71;94.53
4576;BME280;2300;51.874;8.430;2024-01-27T05:08:50;102589.44;;;0.65;95.07
4576;BME280;2300;51.874;8.430;2024-01-27T05:11:25;102576.41;;;0.59;95.79
4576;BME280;2300;51.874;8.430;2024-01-27T05:13:51;102600.25;;;0.65;94.99
4576;BME280;2300;51.874;8.430;2024-01-27T05:16:19;102593.13;;;0.53;95.12
4576;BME280;2300;51.874;8.430;2024-01-27T05:18:46;102593.84;;;0.44;95.09
4576;BME280;2300;51.874;8.430;2024-01-27T05:21:13;102580.31;;;0.33;95.49
4576;BME280;2300;51.874;8.430;2024-01-27T05:23:40;102589.78;;;0.38;95.89
4576;BME280;2300;51.874;8.430;2024-01-27T05:26:06;102602.44;;;0.38;95.61
4576;BME280;2300;51.874;8.430;2024-01-27T05:28:33;102584.00;;;0.32;95.40
4576;BME280;2300;51.874;8.430;2024-01-27T05:30:59;102577.59;;;0.21;96.37
4576;BME280;2300;51.874;8.430;2024-01-27T05:33:27;102582.13;;;0.21;95.93
4576;BME280;2300;51.874;8.430;2024-01-27T05:35:54;102576.84;;;0.08;96.49
4576;BME280;2300;51.874;8.430;2024-01-27T05:38:20;102583.47;;;0.04;97.15
4576;BME280;2300;51.874;8.430;2024-01-27T05:40:47;102584.66;;;0.00;97.11
4576;BME280;2300;51.874;8.430;2024-01-27T05:43:15;102584.56;;;0.02;96.80
4576;BME280;2300;51.874;8.430;2024-01-27T05:45:41;102588.38;;;-0.01;96.64
4576;BME280;2300;51.874;8.430;2024-01-27T05:48:08;102575.22;;;-0.05;96.44
4576;BME280;2300;51.874;8.430;2024-01-27T05:50:36;102594.03;;;0.07;97.15
4576;BME280;2300;51.874;8.430;2024-01-27T05:53:02;102614.06;;;0.05;96.88
4576;BME280;2300;51.874;8.430;2024-01-27T05:55:29;102606.28;;;0.00;97.80
4576;BME280;2300;51.874;8.430;2024-01-27T05:57:55;102609.22;;;-0.03;98.92
4576;BME280;2300;51.874;8.430;2024-01-27T06:00:22;102609.97;;;-0.01;98.51
4576;BME280;2300;51.874;8.430;2024-01-27T06:02:49;102606.28;;;0.00;98.33
4576;BME280;2300;51.874;8.430;2024-01-27T06:05:15;102612.31;;;0.04;98.05
4576;BME280;2300;51.874;8.430;2024-01-27T06:07:43;102617.78;;;-0.09;98.76
4576;BME280;2300;51.874;8.430;2024-01-27T06:10:11;102621.47;;;-0.10;100.00
4576;BME280;2300;51.874;8.430;2024-01-27T06:12:38;102621.72;;;-0.13;99.57
4576;BME280;2300;51.874;8.430;2024-01-27T06:15:05;102638.63;;;-0.22;100.00
4576;BME280;2300;51.874;8.430;2024-01-27T06:17:34;102627.75;;;-0.33;100.00
4576;BME280;2300;51.874;8.430;2024-01-27T06:20:00;102635.16;;;-0.24;100.00
4576;BME280;2300;51.874;8.430;2024-01-27T06:22:27;102639.06;;;-0.28;100.00
4576;BME280;2300;51.874;8.430;2024-01-27T06:24:54;102640.56;;;-0.24;100.00
4576;BME280;2300;51.874;8.430;2024-01-27T06:27:21;102645.41;;;-0.16;100.00
4576;BME280;2300;51.874;8.430;2024-01-27T06:29:47;102650.56;;;-0.13;99.99
4576;BME280;2300;51.874;8.430;2024-01-27T06:32:14;102652.41;;;-0.14;99.26
4576;BME280;2300;51.874;8.430;2024-01-27T06:34:40;102654.22;;;-0.14;98.81
4576;BME280;2300;51.874;8.430;2024-01-27T06:37:07;102659.53;;;-0.13;99.43
4576;BME280;2300;51.874;8.430;2024-01-27T06:39:33;102663.78;;;-0.22;99.14
4576;BME280;2300;51.874;8.430;2024-01-27T06:42:01;102668.22;;;-0.20;99.21
4576;BME280;2300;51.874;8.430;2024-01-27T06:44:28;102661.72;;;-0.18;99.00
4576;BME280;2300;51.874;8.430;2024-01-27T06:46:54;102668.97;;;-0.18;99.02
4576;BME280;2300;51.874;8.430;2024-01-27T06:49:21;102677.91;;;-0.18;99.53
4576;BME280;2300;51.874;8.430;2024-01-27T06:51:47;102668.78;;;-0.28;99.09
4576;BME280;2300;51.874;8.430;2024-01-27T06:54:14;102676.66;;;-0.25;99.43
4576;BME280;2300;51.874;8.430;2024-01-27T06:56:40;102672.97;;;-0.24;98.94
4576;BME280;2300;51.874;8.430;2024-01-27T06:59:08;102671.25;;;-0.25;98.88
4576;BME280;2300;51.874;8.430;2024-01-27T07:01:35;102678.38;;;-0.24;99.07
4576;BME280;2300;51.874;8.430;2024-01-27T07:04:01;102686.41;;;-0.35;98.89
4576;BME280;2300;51.874;8.430;2024-01-27T07:06:27;102682.97;;;-0.37;99.02
4576;BME280;2300;51.874;8.430;2024-01-27T07:08:54;102680.81;;;-0.32;99.07
4576;BME280;2300;51.874;8.430;2024-01-27T07:11:20;102692.56;;;-0.33;99.37
4576;BME280;2300;51.874;8.430;2024-01-27T07:13:47;102684.47;;;-0.33;99.09
4576;BME280;2300;51.874;8.430;2024-01-27T07:16:14;102687.94;;;-0.31;98.51
4576;BME280;2300;51.874;8.430;2024-01-27T07:18:41;102688.03;;;-0.33;98.92
4576;BME280;2300;51.874;8.430;2024-01-27T07:21:07;102688.56;;;-0.28;99.29
4576;BME280;2300;51.874;8.430;2024-01-27T07:23:34;102695.50;;;-0.36;98.80
4576;BME280;2300;51.874;8.430;2024-01-27T07:26:01;102689.00;;;-0.34;98.96
4576;BME280;2300;51.874;8.430;2024-01-27T07:28:29;102700.22;;;-0.27;99.11
4576;BME280;2300;51.874;8.430;2024-01-27T07:30:56;102703.66;;;-0.25;99.16
4576;BME280;2300;51.874;8.430;2024-01-27T07:33:23;102710.78;;;-0.24;99.00
4576;BME280;2300;51.874;8.430;2024-01-27T07:35:50;102718.44;;;-0.18;98.69
4576;BME280;2300;51.874;8.430;2024-01-27T07:38:17;102717.69;;;-0.20;98.77
4576;BME280;2300;51.874;8.430;2024-01-27T07:40:43;102720.91;;;-0.15;98.68
4576;BME280;2300;51.874;8.430;2024-01-27T07:43:10;102718.34;;;-0.16;98.83
4576;BME280;2300;51.874;8.430;2024-01-27T07:45:36;102717.47;;;-0.17;98.89
4576;BME280;2300;51.874;8.430;2024-01-27T07:48:03;102721.66;;;-0.13;99.20
4576;BME280;2300;51.874;8.430;2024-01-27T07:50:31;102709.47;;;-0.18;98.72
4576;BME280;2300;51.874;8.430;2024-01-27T07:52:59;102697.00;;;-0.32;98.95
4576;BME280;2300;51.874;8.430;2024-01-27T07:55:25;102704.69;;;-0.15;98.49
4576;BME280;2300;51.874;8.430;2024-01-27T07:57:52;102710.84;;;-0.13;99.09
4576;BME280;2300;51.874;8.430;2024-01-27T08:00:19;102712.59;;;-0.12;98.87
4576;BME280;2300;51.874;8.430;2024-01-27T08:02:45;102720.69;;;-0.12;98.73
4576;BME280;2300;51.874;8.430;2024-01-27T08:05:12;102729.19;;;-0.05;99.07
4576;BME280;2300;51.874;8.430;2024-01-27T08:07:40;102730.34;;;0.03;99.49
4576;BME280;2300;51.874;8.430;2024-01-27T08:10:07;102732.06;;;0.04;100.00
4576;BME280;2300;51.874;8.430;2024-01-27T08:12:36;102732.25;;;0.14;100.00
4576;BME280;2300;51.874;8.430;2024-01-27T08:15:03;102733.97;;;0.15;99.46
4576;BME280;2300;51.874;8.430;2024-01-27T08:17:30;102740.25;;;0.27;99.76
4576;BME280;2300;51.874;8.430;2024-01-27T08:19:56;102739.94;;;0.31;99.37
4576;BME280;2300;51.874;8.430;2024-01-27T08:22:23;102747.53;;;0.26;99.17
4576;BME280;2300;51.874;8.430;2024-01-27T08:24:51;102742.66;;;0.31;98.49
4576;BME280;2300;51.874;8.430;2024-01-27T08:27:17;102747.81;;;0.34;98.55
4576;BME280;2300;51.874;8.430;2024-01-27T08:29:44;102737.59;;;0.38;98.39
4576;BME280;2300;51.874;8.430;2024-01-27T08:32:10;102719.66;;;0.26;99.16
4576;BME280;2300;51.874;8.430;2024-01-27T08:34:37;102736.56;;;0.51;98.88
4576;BME280;2300;51.874;8.430;2024-01-27T08:37:14;102734.59;;;0.53;98.68
4576;BME280;2300;51.874;8.430;2024-01-27T08:39:41;102739.16;;;0.64;98.94
4576;BME280;2300;51.874;8.430;2024-01-27T08:42:09;102734.75;;;0.74;98.99
4576;BME280;2300;51.874;8.430;2024-01-27T08:44:35;102746.47;;;0.86;99.13
4576;BME280;2300;51.874;8.430;2024-01-27T08:47:02;102752.63;;;0.99;99.28
4576;BME280;2300;51.874;8.430;2024-01-27T08:49:29;102753.16;;;1.15;99.83
4576;BME280;2300;51.874;8.430;2024-01-27T08:51:55;102759.19;;;1.30;99.38
4576;BME280;2300;51.874;8.430;2024-01-27T08:54:22;102755.63;;;1.40;100.00
4576;BME280;2300;51.874;8.430;2024-01-27T08:56:49;102755.25;;;1.56;100.00
4576;BME280;2300;51.874;8.430;2024-01-27T08:59:16;102761.41;;;1.69;99.96
4576;BME280;2300;51.874;8.430;2024-01-27T09:01:43;102756.22;;;1.77;100.00
4576;BME280;2300;51.874;8.430;2024-01-27T09:04:10;102761.88;;;1.85;99.43
4576;BME280;2300;51.874;8.430;2024-01-27T09:06:36;102758.88;;;2.00;99.43
4576;BME280;2300;51.874;8.430;2024-01-27T09:09:03;102755.88;;;2.14;98.74
4576;BME280;2300;51.874;8.430;2024-01-27T09:11:30;102762.88;;;2.27;98.79
4576;BME280;2300;51.874;8.430;2024-01-27T09:13:57;102764.53;;;2.40;97.70
4576;BME280;2300;51.874;8.430;2024-01-27T09:16:25;102768.34;;;2.48;97.68
4576;BME280;2300;51.874;8.430;2024-01-27T09:18:51;102761.25;;;2.57;96.33
4576;BME280;2300;51.874;8.430;2024-01-27T09:21:19;102758.03;;;2.63;96.50
4576;BME280;2300;51.874;8.430;2024-01-27T09:23:53;102759.94;;;2.72;96.07
4576;BME280;2300;51.874;8.430;2024-01-27T09:26:19;102765.38;;;2.93;95.19
4576;BME280;2300;51.874;8.430;2024-01-27T09:28:48;102772.47;;;3.05;95.01
4576;BME280;2300;51.874;8.430;2024-01-27T09:31:19;102778.28;;;3.21;93.88
4576;BME280;2300;51.874;8.430;2024-01-27T09:33:48;102777.16;;;3.33;92.98
4576;BME280;2300;51.874;8.430;2024-01-27T09:36:15;102778.13;;;3.53;91.98
4576;BME280;2300;51.874;8.430;2024-01-27T09:38:42;102781.19;;;3.69;91.39
4576;BME280;2300;51.874;8.430;2024-01-27T09:41:10;102785.25;;;3.84;90.68
4576;BME280;2300;51.874;8.430;2024-01-27T09:43:37;102784.44;;;4.03;89.51
4576;BME280;2300;51.874;8.430;2024-01-27T09:46:03;102785.59;;;4.10;89.24
4576;BME280;2300;51.874;8.430;2024-01-27T09:48:31;102788.06;;;4.32;87.79
4576;BME280;2300;51.874;8.430;2024-01-27T09:51:01;102782.09;;;4.38;86.65
4576;BME280;2300;51.874;8.430;2024-01-27T09:53:28;102790.84;;;4.52;85.72
4576;BME280;2300;51.874;8.430;2024-01-27T09:55:55;102793.56;;;4.71;84.55
4576;BME280;2300;51.874;8.430;2024-01-27T09:58:25;102798.97;;;5.00;84.88
4576;BME280;2300;51.874;8.430;2024-01-27T10:00:54;102787.41;;;4.98;83.72
4576;BME280;2300;51.874;8.430;2024-01-27T10:03:22;102807.00;;;5.11;82.76
4576;BME280;2300;51.874;8.430;2024-01-27T10:05:50;102804.69;;;5.16;82.59
4576;BME280;2300;51.874;8.430;2024-01-27T10:08:20;102802.09;;;5.33;82.52
4576;BME280;2300;51.874;8.430;2024-01-27T10:10:47;102811.81;;;5.36;81.67
4576;BME280;2300;51.874;8.430;2024-01-27T10:13:14;102805.31;;;5.47;81.13
4576;BME280;2300;51.874;8.430;2024-01-27T10:15:43;102811.19;;;5.52;80.85
4576;BME280;2300;51.874;8.430;2024-01-27T10:18:09;102814.31;;;5.57;80.03
4576;BME280;2300;51.874;8.430;2024-01-27T10:20:38;102809.81;;;5.75;80.08
4576;BME280;2300;51.874;8.430;2024-01-27T10:23:12;102813.69;;;5.72;79.95
4576;BME280;2300;51.874;8.430;2024-01-27T10:25:40;102816.28;;;5.74;79.08
4576;BME280;2300;51.874;8.430;2024-01-27T10:28:07;102818.31;;;5.99;79.38
4576;BME280;2300;51.874;8.430;2024-01-27T10:30:34;102804.59;;;6.09;79.20
4576;BME280;2300;51.874;8.430;2024-01-27T10:33:01;102805.16;;;6.12;78.82
4576;BME280;2300;51.874;8.430;2024-01-27T10:35:28;102792.56;;;6.02;78.51
4576;BME280;2300;51.874;8.430;2024-01-27T10:37:55;102797.53;;;6.16;77.99
4576;BME280;2300;51.874;8.430;2024-01-27T10:40:22;102792.09;;;6.16;77.98
4576;BME280;2300;51.874;8.430;2024-01-27T10:43:00;102789.06;;;6.37;77.47
4576;BME280;2300;51.874;8.430;2024-01-27T10:45:30;102793.66;;;6.54;77.46
4576;BME280;2300;51.874;8.430;2024-01-27T10:48:02;102786.72;;;6.42;77.01
4576;BME280;2300;51.874;8.430;2024-01-27T10:50:29;102790.69;;;6.65;77.02
4576;BME280;2300;51.874;8.430;2024-01-27T10:52:57;102782.13;;;6.60;77.05
4576;BME280;2300;51.874;8.430;2024-01-27T10:55:24;102778.31;;;6.88;76.89
4576;BME280;2300;51.874;8.430;2024-01-27T10:57:54;102775.72;;;6.69;75.74
4576;BME280;2300;51.874;8.430;2024-01-27T11:00:23;102788.13;;;6.99;75.51
4576;BME280;2300;51.874;8.430;2024-01-27T11:02:52;102784.53;;;6.98;75.67
4576;BME280;2300;51.874;8.430;2024-01-27T11:05:21;102785.56;;;6.97;75.16
4576;BME280;2300;51.874;8.430;2024-01-27T11:07:48;102778.59;;;7.03;75.12
4576;BME280;2300;51.874;8.430;2024-01-27T11:10:16;102769.06;;;7.07;74.99
4576;BME280;2300;51.874;8.430;2024-01-27T11:12:43;102761.88;;;7.06;74.61
4576;BME280;2300;51.874;8.430;2024-01-27T11:15:11;102757.78;;;6.84;74.15
4576;BME280;2300;51.874;8.430;2024-01-27T11:17:39;102750.09;;;7.06;74.69
4576;BME280;2300;51.874;8.430;2024-01-27T11:20:07;102742.47;;;6.91;74.42
4576;BME280;2300;51.874;8.430;2024-01-27T11:22:34;102741.59;;;7.09;74.41
4576;BME280;2300;51.874;8.430;2024-01-27T11:25:07;102742.19;;;7.20;74.11
4576;BME280;2300;51.874;8.430;2024-01-27T11:27:34;102744.13;;;7.10;74.75
4576;BME280;2300;51.874;8.430;2024-01-27T11:30:01;102748.19;;;7.32;73.78
4576;BME280;2300;51.874;8.430;2024-01-27T11:32:30;102751.28;;;7.29;73.95
4576;BME280;2300;51.874;8.430;2024-01-27T11:34:56;102750.28;;;7.38;73.98
4576;BME280;2300;51.874;8.430;2024-01-27T11:37:23;102750.81;;;7.41;73.79
4576;BME280;2300;51.874;8.430;2024-01-27T11:39:50;102749.66;;;7.44;73.81
4576;BME280;2300;51.874;8.430;2024-01-27T11:42:17;102742.25;;;7.11;74.19
4576;BME280;2300;51.874;8.430;2024-01-27T11:44:44;102746.44;;;7.23;74.41
4576;BME280;2300;51.874;8.430;2024-01-27T11:47:15;102757.28;;;7.07;74.54
4576;BME280;2300;51.874;8.430;2024-01-27T11:49:50;102753.13;;;7.20;73.26
4576;BME280;2300;51.874;8.430;2024-01-27T11:52:17;102753.63;;;7.24;74.39
4576;BME280;2300;51.874;8.430;2024-01-27T11:54:44;102758.75;;;7.27;74.36
4576;BME280;2300;51.874;8.430;2024-01-27T11:57:10;102762.63;;;7.16;73.86
4576;BME280;2300;51.874;8.430;2024-01-27T11:59:37;102760.16;;;7.31;73.82
4576;BME280;2300;51.874;8.430;2024-01-27T12:02:03;102764.69;;;7.48;73.45
4576;BME280;2300;51.874;8.430;2024-01-27T12:04:31;102763.19;;;7.54;71.94
4576;BME280;2300;51.874;8.430;2024-01-27T12:06:59;102772.13;;;7.64;72.68
4576;BME280;2300;51.874;8.430;2024-01-27T12:09:25;102769.25;;;7.65;71.58
4576;BME280;2300;51.874;8.430;2024-01-27T12:11:52;102775.03;;;7.62;71.73
4576;BME280;2300;51.874;8.430;2024-01-27T12:14:19;102768.47;;;7.81;72.40
4576;BME280;2300;51.874;8.430;2024-01-27T12:16:45;102775.44;;;7.75;71.74
4576;BME280;2300;51.874;8.430;2024-01-27T12:19:13;102789.84;;;7.85;71.98
4576;BME280;2300;51.874;8.430;2024-01-27T12:21:47;102791.13;;;7.65;70.86
4576;BME280;2300;51.874;8.430;2024-01-27T12:24:16;102777.16;;;7.76;69.81
4576;BME280;2300;51.874;8.430;2024-01-27T12:26:44;102778.84;;;7.77;70.18
4576;BME280;2300;51.874;8.430;2024-01-27T12:29:11;102771.16;;;7.73;68.78
4576;BME280;2300;51.874;8.430;2024-01-27T12:31:37;102775.03;;;7.62;68.16
4576;BME280;2300;51.874;8.430;2024-01-27T12:34:04;102759.28;;;7.56;68.11
4576;BME280;2300;51.874;8.430;2024-01-27T12:36:31;102770.97;;;7.66;68.81
4576;BME280;2300;51.874;8.430;2024-01-27T12:38:58;102768.81;;;7.52;68.24
4576;BME280;2300;51.874;8.430;2024-01-27T12:41:27;102768.09;;;7.42;68.81
4576;BME280;2300;51.874;8.430;2024-01-27T12:43:54;102758.06;;;7.51;68.97
4576;BME280;2300;51.874;8.430;2024-01-27T12:46:21;102760.53;;;7.62;68.85
4576;BME280;2300;51.874;8.430;2024-01-27T12:48:48;102764.44;;;7.67;68.67
4576;BME280;2300;51.874;8.430;2024-01-27T12:51:14;102767.72;;;7.71;67.63
4576;BME280;2300;51.874;8.430;2024-01-27T12:53:42;102769.91;;;7.59;67.49
4576;BME280;2300;51.874;8.430;2024-01-27T12:56:09;102767.53;;;7.64;68.82
4576;BME280;2300;51.874;8.430;2024-01-27T12:58:38;102767.41;;;7.74;68.12
4576;BME280;2300;51.874;8.430;2024-01-27T13:01:05;102770.19;;;7.82;68.00
4576;BME280;2300;51.874;8.430;2024-01-27T13:03:31;102771.34;;;7.79;67.37
4576;BME280;2300;51.874;8.430;2024-01-27T13:05:58;102765.56;;;7.82;67.46
4576;BME280;2300;51.874;8.430;2024-01-27T13:08:25;102774.50;;;7.93;67.54
4576;BME280;2300;51.874;8.430;2024-01-27T13:10:52;102772.78;;;8.00;66.76
4576;BME280;2300;51.874;8.430;2024-01-27T13:13:18;102782.63;;;8.18;67.13
4576;BME280;2300;51.874;8.430;2024-01-27T13:15:46;102780.69;;;8.11;66.56
4576;BME280;2300;51.874;8.430;2024-01-27T13:18:13;102776.53;;;7.99;67.16